Time;durP1;ratioP1;P1;durP2;ratioP2;P2;SDS_P1;SDS_P2;PMS_P1;PMS_P2;Temp;Humidity;BMP_temperature;BMP_pressure;BME280_temperature;BME280_humidity;BME280_pressure;Samples;Min_cycle;Max_cycle;Signal;HPM_P1;HPM_P2
2021/06/21 00:00:14;;;;;;;6.45;4.50;;;;;;;;;;5069978;28;20081;-66
2021/06/21 00:02:39;;;;;;;10.23;4.60;;;;;;;;;;5071253;28;20109;-66
2021/06/21 00:05:05;;;;;;;9.47;4.47;;;;;;;;;;5070869;28;20051;-65
2021/06/21 00:07:31;;;;;;;5.05;4.20;;;;;;;;;;5069658;28;20265;-65
2021/06/21 00:09:56;;;;;;;8.07;4.32;;;;;;;;;;5065572;28;20398;-65
2021/06/21 00:12:21;;;;;;;10.07;4.90;;;;;;;;;;5064699;28;20029;-66
2021/06/21 00:14:46;;;;;;;6.38;4.50;;;;;;;;;;5070866;28;20029;-66
2021/06/21 00:17:12;;;;;;;7.53;4.45;;;;;;;;;;5070861;28;20043;-66
2021/06/21 00:19:37;;;;;;;6.35;4.10;;;;;;;;;;5071078;28;20166;-65
2021/06/21 00:22:03;;;;;;;5.90;3.92;;;;;;;;;;5070786;28;20437;-65
2021/06/21 00:24:29;;;;;;;7.22;4.32;;;;;;;;;;5052459;28;20383;-66
2021/06/21 00:26:54;;;;;;;6.75;4.30;;;;;;;;;;5068195;28;20024;-66
2021/06/21 00:29:19;;;;;;;6.80;4.40;;;;;;;;;;5070472;28;20485;-66
2021/06/21 00:31:44;;;;;;;7.85;4.88;;;;;;;;;;5070760;28;20274;-66
2021/06/21 00:34:10;;;;;;;9.43;4.57;;;;;;;;;;5070674;28;20055;-65
2021/06/21 00:36:35;;;;;;;6.97;4.70;;;;;;;;;;5070400;28;20115;-66
2021/06/21 00:39:00;;;;;;;8.05;4.95;;;;;;;;;;5071201;28;20056;-66
2021/06/21 00:41:26;;;;;;;9.43;5.10;;;;;;;;;;5069318;28;20047;-66
2021/06/21 00:43:51;;;;;;;7.78;5.40;;;;;;;;;;5070969;28;20016;-66
2021/06/21 00:46:16;;;;;;;9.05;4.88;;;;;;;;;;5070007;28;20391;-65
2021/06/21 00:48:42;;;;;;;9.27;4.28;;;;;;;;;;5070697;28;20024;-66
2021/06/21 00:51:07;;;;;;;10.63;4.70;;;;;;;;;;5070415;28;20178;-66
2021/06/21 00:53:33;;;;;;;6.97;4.20;;;;;;;;;;5069681;28;20028;-65
2021/06/21 00:55:58;;;;;;;10.00;4.25;;;;;;;;;;5070130;28;20028;-65
2021/06/21 00:58:24;;;;;;;7.10;4.70;;;;;;;;;;5055649;28;20031;-65
2021/06/21 01:00:49;;;;;;;9.98;4.35;;;;;;;;;;5065401;28;20282;-67
2021/06/21 01:03:14;;;;;;;7.30;4.75;;;;;;;;;;5067917;28;20095;-66
2021/06/21 01:05:40;;;;;;;8.75;5.13;;;;;;;;;;5069744;28;20112;-68
2021/06/21 01:08:08;;;;;;;10.05;5.15;;;;;;;;;;5068767;28;20063;-67
2021/06/21 01:10:35;;;;;;;10.80;5.88;;;;;;;;;;5070750;28;20020;-67
2021/06/21 01:13:03;;;;;;;8.52;6.60;;;;;;;;;;5070545;28;20074;-67
2021/06/21 01:15:34;;;;;;;12.55;6.60;;;;;;;;;;5069841;28;20048;-67
2021/06/21 01:18:06;;;;;;;11.05;5.60;;;;;;;;;;5050400;28;20079;-66
2021/06/21 01:20:34;;;;;;;12.35;5.40;;;;;;;;;;5063680;28;20418;-65
2021/06/21 01:23:09;;;;;;;12.52;6.00;;;;;;;;;;5070354;28;20048;-66
2021/06/21 01:25:38;;;;;;;11.07;5.05;;;;;;;;;;5069854;28;20017;-67
2021/06/21 01:28:05;;;;;;;11.85;5.32;;;;;;;;;;5070561;28;20017;-67
2021/06/21 01:30:48;;;;;;;14.25;4.63;;;;;;;;;;5070427;28;20040;-67
2021/06/21 01:33:14;;;;;;;15.07;6.10;;;;;;;;;;5051526;28;20044;-67
2021/06/21 01:35:41;;;;;;;20.25;7.22;;;;;;;;;;5067067;28;20045;-67
2021/06/21 01:38:12;;;;;;;19.90;5.97;;;;;;;;;;5070384;28;20019;-67
2021/06/21 01:40:43;;;;;;;21.52;5.93;;;;;;;;;;5069852;28;20035;-67
2021/06/21 01:43:10;;;;;;;33.25;7.20;;;;;;;;;;5073410;28;20497;-67
2021/06/21 01:45:35;;;;;;;14.90;4.22;;;;;;;;;;5073816;28;20082;-67
2021/06/21 01:48:01;;;;;;;26.95;6.30;;;;;;;;;;5073737;28;20017;-67
2021/06/21 01:50:27;;;;;;;17.20;7.50;;;;;;;;;;5073870;28;20434;-67
2021/06/21 01:52:56;;;;;;;28.50;6.72;;;;;;;;;;5074093;28;20024;-66
2021/06/21 01:55:23;;;;;;;20.10;6.90;;;;;;;;;;5073585;28;20020;-67
2021/06/21 01:57:48;;;;;;;19.70;6.57;;;;;;;;;;5074057;28;20017;-67
2021/06/21 02:00:14;;;;;;;20.83;5.95;;;;;;;;;;5073421;28;20016;-66
2021/06/21 02:02:40;;;;;;;15.55;6.05;;;;;;;;;;5072516;28;20399;-66
2021/06/21 02:05:06;;;;;;;18.45;6.20;;;;;;;;;;5073561;28;20012;-66
2021/06/21 02:07:32;;;;;;;19.25;6.80;;;;;;;;;;5073887;28;20020;-67
2021/06/21 02:09:58;;;;;;;22.95;7.63;;;;;;;;;;5073329;28;20021;-67
2021/06/21 02:12:25;;;;;;;32.20;6.53;;;;;;;;;;5073697;28;20381;-67
2021/06/21 02:14:51;;;;;;;23.67;6.05;;;;;;;;;;5072954;28;20027;-67
2021/06/21 02:17:21;;;;;;;18.30;7.43;;;;;;;;;;5073463;28;20390;-66
2021/06/21 02:19:46;;;;;;;14.48;6.32;;;;;;;;;;5070316;28;20017;-66
2021/06/21 02:22:12;;;;;;;25.15;6.70;;;;;;;;;;5072947;28;20422;-66
2021/06/21 02:24:38;;;;;;;15.52;7.70;;;;;;;;;;5072585;28;20090;-67
2021/06/21 02:27:04;;;;;;;15.80;6.22;;;;;;;;;;5073422;28;20020;-66
2021/06/21 02:29:29;;;;;;;15.10;5.55;;;;;;;;;;5073160;28;20029;-65
2021/06/21 02:31:55;;;;;;;18.60;6.20;;;;;;;;;;5066662;28;20043;-66
2021/06/21 02:34:20;;;;;;;16.63;6.07;;;;;;;;;;5072945;28;20038;-66
2021/06/21 02:36:46;;;;;;;14.83;6.07;;;;;;;;;;5073067;28;20021;-67
2021/06/21 02:39:12;;;;;;;17.00;5.63;;;;;;;;;;5072898;28;20328;-65
2021/06/21 02:41:37;;;;;;;8.32;3.33;;;;;;;;;;5073054;28;20643;-66
2021/06/21 02:44:03;;;;;;;11.13;5.43;;;;;;;;;;5073231;28;20466;-66
2021/06/21 02:46:28;;;;;;;11.32;4.97;;;;;;;;;;5072640;28;20493;-66
2021/06/21 02:48:54;;;;;;;11.57;5.55;;;;;;;;;;5072710;28;20012;-66
2021/06/21 02:51:29;;;;;;;13.10;4.03;;;;;;;;;;5072796;28;20032;-66
2021/06/21 02:54:01;;;;;;;12.82;4.28;;;;;;;;;;5072547;28;20036;-65
2021/06/21 02:56:31;;;;;;;9.35;4.85;;;;;;;;;;5072209;28;20032;-66
2021/06/21 02:59:01;;;;;;;9.38;4.70;;;;;;;;;;5071915;28;20520;-65
2021/06/21 03:01:26;;;;;;;22.10;6.30;;;;;;;;;;5070066;28;20031;-66
2021/06/21 03:03:53;;;;;;;11.68;5.28;;;;;;;;;;5072189;28;20021;-66
2021/06/21 03:06:19;;;;;;;9.43;5.00;;;;;;;;;;5072298;28;20390;-66
2021/06/21 03:08:45;;;;;;;9.27;4.47;;;;;;;;;;5072713;28;20017;-66
2021/06/21 03:11:14;;;;;;;15.02;4.65;;;;;;;;;;5072532;28;20021;-66
2021/06/21 03:13:40;;;;;;;11.55;4.97;;;;;;;;;;5072302;28;20020;-67
2021/06/21 03:16:06;;;;;;;6.95;4.80;;;;;;;;;;5071886;28;20020;-65
2021/06/21 03:18:33;;;;;;;8.60;6.10;;;;;;;;;;5071495;28;20051;-66
2021/06/21 03:20:59;;;;;;;7.57;6.22;;;;;;;;;;5072101;28;20035;-66
2021/06/21 03:23:25;;;;;;;11.35;7.10;;;;;;;;;;5072261;28;20013;-66
2021/06/21 03:25:54;;;;;;;8.55;6.47;;;;;;;;;;5071283;28;20024;-66
2021/06/21 03:28:20;;;;;;;14.52;6.95;;;;;;;;;;5072308;28;20017;-66
2021/06/21 03:30:47;;;;;;;13.50;7.28;;;;;;;;;;5071899;28;20027;-66
2021/06/21 03:33:12;;;;;;;11.25;6.60;;;;;;;;;;5072223;28;20479;-66
2021/06/21 03:35:37;;;;;;;9.07;5.78;;;;;;;;;;5063788;28;20043;-66
2021/06/21 03:38:13;;;;;;;11.65;5.25;;;;;;;;;;5072174;28;20364;-66
2021/06/21 03:40:38;;;;;;;13.50;8.05;;;;;;;;;;5071747;28;20024;-65
2021/06/21 03:43:03;;;;;;;15.63;7.72;;;;;;;;;;5071552;28;20017;-66
2021/06/21 03:45:28;;;;;;;18.73;8.17;;;;;;;;;;5071513;28;20025;-66
2021/06/21 03:47:53;;;;;;;13.32;6.18;;;;;;;;;;5071912;28;20246;-66
2021/06/21 03:50:19;;;;;;;15.67;8.33;;;;;;;;;;5069230;28;20025;-66
2021/06/21 03:52:44;;;;;;;11.77;7.33;;;;;;;;;;5071038;28;20316;-66
2021/06/21 03:55:09;;;;;;;21.97;10.57;;;;;;;;;;5071429;28;20594;-66
2021/06/21 03:57:43;;;;;;;7.82;4.57;;;;;;;;;;5071674;28;20251;-66
2021/06/21 04:00:10;;;;;;;11.57;6.35;;;;;;;;;;5070705;28;20106;-66
2021/06/21 04:02:35;;;;;;;16.20;9.43;;;;;;;;;;5071626;28;20024;-66
2021/06/21 04:05:01;;;;;;;15.73;8.77;;;;;;;;;;5070170;28;20587;-65
2021/06/21 04:07:26;;;;;;;10.20;5.63;;;;;;;;;;5068837;28;20035;-66
2021/06/21 04:09:51;;;;;;;20.37;12.40;;;;;;;;;;5070603;28;20050;-65
2021/06/21 04:12:17;;;;;;;21.95;10.77;;;;;;;;;;5071214;28;20273;-66
2021/06/21 04:14:42;;;;;;;21.25;13.10;;;;;;;;;;5070760;28;20454;-66
2021/06/21 04:17:07;;;;;;;19.58;11.73;;;;;;;;;;5070719;28;20073;-67
2021/06/21 04:19:32;;;;;;;19.27;11.90;;;;;;;;;;5070467;28;20032;-66
2021/06/21 04:21:58;;;;;;;22.47;9.43;;;;;;;;;;5070126;28;20282;-66
2021/06/21 04:24:23;;;;;;;23.75;13.27;;;;;;;;;;5064728;28;20748;-66
2021/06/21 04:26:48;;;;;;;21.33;14.43;;;;;;;;;;5070514;28;20356;-66
2021/06/21 04:29:13;;;;;;;29.23;14.47;;;;;;;;;;5069741;28;20298;-66
2021/06/21 04:31:38;;;;;;;17.23;9.47;;;;;;;;;;5070491;28;20341;-66
2021/06/21 04:34:04;;;;;;;17.93;10.10;;;;;;;;;;5061703;28;20269;-65
2021/06/21 04:36:29;;;;;;;28.05;15.77;;;;;;;;;;5069737;28;20271;-67
2021/06/21 04:38:54;;;;;;;23.57;15.60;;;;;;;;;;5070633;28;20115;-66
2021/06/21 04:41:19;;;;;;;25.83;15.40;;;;;;;;;;5070648;28;20676;-66
2021/06/21 04:43:44;;;;;;;27.83;16.77;;;;;;;;;;5070247;28;20267;-66
2021/06/21 04:46:09;;;;;;;29.70;16.43;;;;;;;;;;5062630;28;20028;-66
2021/06/21 04:48:35;;;;;;;34.60;19.08;;;;;;;;;;5061581;28;20485;-66
2021/06/21 04:51:00;;;;;;;27.02;14.52;;;;;;;;;;5070284;28;20055;-66
2021/06/21 04:53:25;;;;;;;34.22;18.00;;;;;;;;;;5070334;28;20060;-66
2021/06/21 04:55:50;;;;;;;28.73;17.27;;;;;;;;;;5053495;28;20082;-66
2021/06/21 04:58:16;;;;;;;27.13;16.17;;;;;;;;;;5070307;28;20063;-66
2021/06/21 05:00:41;;;;;;;30.45;19.23;;;;;;;;;;5070153;28;20267;-66
2021/06/21 05:03:06;;;;;;;30.80;18.50;;;;;;;;;;5069301;28;20016;-66
2021/06/21 05:05:31;;;;;;;33.47;18.60;;;;;;;;;;5069192;28;20390;-66
2021/06/21 05:07:57;;;;;;;28.80;17.85;;;;;;;;;;5070420;28;20251;-67
2021/06/21 05:10:23;;;;;;;31.30;17.95;;;;;;;;;;5065794;28;20078;-65
2021/06/21 05:12:48;;;;;;;31.17;19.25;;;;;;;;;;5067950;28;20028;-66
2021/06/21 05:15:14;;;;;;;31.60;19.38;;;;;;;;;;5067500;28;20081;-66
2021/06/21 05:17:40;;;;;;;32.97;18.33;;;;;;;;;;5116134;22;20047;-72
2021/06/21 05:20:06;;;;;;;28.83;19.83;;;;;;;;;;5064856;28;20024;-71
2021/06/21 05:22:31;;;;;;;32.95;16.38;;;;;;;;;;5066340;28;20044;-72
2021/06/21 05:24:59;;;;;;;33.08;18.75;;;;;;;;;;5065736;28;20417;-72
2021/06/21 05:27:24;;;;;;;27.40;14.60;;;;;;;;;;5067881;28;20017;-72
2021/06/21 05:29:49;;;;;;;26.63;16.17;;;;;;;;;;5063570;28;20112;-71
2021/06/21 05:32:15;;;;;;;23.37;15.57;;;;;;;;;;5058679;28;20032;-71
2021/06/21 05:34:40;;;;;;;26.55;15.48;;;;;;;;;;5066155;28;20297;-72
2021/06/21 05:37:05;;;;;;;23.55;13.45;;;;;;;;;;5060636;28;20035;-72
2021/06/21 05:39:31;;;;;;;23.00;10.77;;;;;;;;;;5067403;28;20028;-72
2021/06/21 05:41:56;;;;;;;26.85;15.32;;;;;;;;;;5049702;28;20087;-71
2021/06/21 05:44:21;;;;;;;24.97;16.77;;;;;;;;;;5067451;28;20391;-72
2021/06/21 05:46:47;;;;;;;29.17;16.02;;;;;;;;;;5050055;28;20270;-72
2021/06/21 05:49:12;;;;;;;19.02;13.60;;;;;;;;;;5066468;28;20438;-72
2021/06/21 05:51:38;;;;;;;21.42;13.20;;;;;;;;;;5063589;28;20024;-72
2021/06/21 05:54:03;;;;;;;20.97;12.33;;;;;;;;;;5068508;28;20077;-71
2021/06/21 05:56:28;;;;;;;19.77;10.15;;;;;;;;;;5069507;28;20259;-72
2021/06/21 05:58:53;;;;;;;23.13;10.17;;;;;;;;;;5069753;28;20099;-71
2021/06/21 06:01:19;;;;;;;23.43;10.20;;;;;;;;;;5068891;28;20302;-72
2021/06/21 06:03:44;;;;;;;25.75;10.10;;;;;;;;;;5069775;28;20278;-73
2021/06/21 06:06:09;;;;;;;24.48;9.38;;;;;;;;;;5068336;28;20066;-72
2021/06/21 06:08:34;;;;;;;22.80;8.65;;;;;;;;;;5069495;28;20012;-72
2021/06/21 06:11:00;;;;;;;13.80;6.27;;;;;;;;;;5068827;28;20028;-72
2021/06/21 06:13:26;;;;;;;12.07;5.15;;;;;;;;;;5067872;28;20298;-72
2021/06/21 06:15:51;;;;;;;17.60;5.93;;;;;;;;;;5068107;28;20016;-72
2021/06/21 06:18:16;;;;;;;13.03;4.90;;;;;;;;;;5069200;28;20032;-72
2021/06/21 06:20:42;;;;;;;16.33;5.10;;;;;;;;;;5069537;28;20586;-72
2021/06/21 06:23:07;;;;;;;13.82;4.63;;;;;;;;;;5069750;28;20663;-71
2021/06/21 06:25:32;;;;;;;16.25;4.50;;;;;;;;;;5069357;28;20020;-71
2021/06/21 06:27:59;;;;;;;16.15;3.83;;;;;;;;;;5053301;28;20026;-71
2021/06/21 06:30:24;;;;;;;21.08;3.58;;;;;;;;;;5056590;28;20052;-71
2021/06/21 06:32:49;;;;;;;9.20;3.23;;;;;;;;;;5073272;28;20075;-71
2021/06/21 06:35:14;;;;;;;9.57;2.63;;;;;;;;;;5073118;28;20697;-71
2021/06/21 06:37:41;;;;;;;16.75;3.38;;;;;;;;;;5073246;28;20273;-72
2021/06/21 06:40:06;;;;;;;18.95;4.93;;;;;;;;;;5066460;28;20031;-73
2021/06/21 06:42:32;;;;;;;16.50;4.78;;;;;;;;;;5064595;28;20028;-73
2021/06/21 06:44:57;;;;;;;14.80;3.17;;;;;;;;;;5067472;28;20335;-72
2021/06/21 06:47:22;;;;;;;18.02;3.88;;;;;;;;;;5070615;28;20473;-73
2021/06/21 06:49:47;;;;;;;9.97;3.03;;;;;;;;;;5071979;28;20024;-72
2021/06/21 06:52:15;;;;;;;11.43;5.13;;;;;;;;;;5072350;28;20847;-73
2021/06/21 06:56:58;;;;;;;12.82;3.33;;;;;;;;;;5071838;28;20357;-73
2021/06/21 06:57:35;;;;;;;27.95;3.92;;;;;;;;;;5071156;28;20473;-73
2021/06/21 07:00:00;;;;;;;13.27;4.07;;;;;;;;;;5072231;28;21425;-73
2021/06/21 07:02:26;;;;;;;12.18;3.47;;;;;;;;;;5072023;28;20032;-73
2021/06/21 07:04:51;;;;;;;18.98;5.25;;;;;;;;;;5071826;28;20115;-73
2021/06/21 07:07:18;;;;;;;17.20;3.73;;;;;;;;;;5067297;28;20016;-73
2021/06/21 07:09:43;;;;;;;9.13;4.35;;;;;;;;;;5067845;28;20259;-71
2021/06/21 07:12:08;;;;;;;14.93;3.30;;;;;;;;;;5052701;28;20502;-73
2021/06/21 07:14:33;;;;;;;9.52;3.00;;;;;;;;;;5063113;28;20317;-72
2021/06/21 07:16:59;;;;;;;14.45;3.95;;;;;;;;;;5067413;28;20067;-72
2021/06/21 07:19:24;;;;;;;14.48;3.90;;;;;;;;;;5072025;28;20052;-73
2021/06/21 07:21:50;;;;;;;11.07;2.47;;;;;;;;;;5072363;28;20027;-72
2021/06/21 07:24:16;;;;;;;12.27;3.50;;;;;;;;;;5053761;28;20020;-73
2021/06/21 07:26:42;;;;;;;9.95;3.85;;;;;;;;;;5063977;28;20514;-73
2021/06/21 07:29:08;;;;;;;18.88;3.78;;;;;;;;;;5069578;28;20121;-73
2021/06/21 07:31:33;;;;;;;13.63;3.22;;;;;;;;;;5060603;28;20100;-73
2021/06/21 07:33:58;;;;;;;18.02;3.25;;;;;;;;;;5067403;28;20023;-72
2021/06/21 07:36:24;;;;;;;6.43;2.97;;;;;;;;;;5071488;28;20036;-72
2021/06/21 07:38:49;;;;;;;9.63;3.22;;;;;;;;;;5070477;28;20020;-73
2021/06/21 07:41:15;;;;;;;5.65;2.35;;;;;;;;;;5069931;28;20021;-72
2021/06/21 07:43:41;;;;;;;14.98;3.53;;;;;;;;;;5053470;28;20375;-72
2021/06/21 07:46:06;;;;;;;5.85;2.67;;;;;;;;;;5069328;28;20099;-73
2021/06/21 07:48:33;;;;;;;12.23;3.60;;;;;;;;;;5061699;28;20078;-72
2021/06/21 07:50:58;;;;;;;6.88;2.05;;;;;;;;;;5065291;28;20024;-73
2021/06/21 07:53:23;;;;;;;6.72;2.58;;;;;;;;;;5071349;28;20043;-73
2021/06/21 07:55:49;;;;;;;11.17;3.10;;;;;;;;;;5070868;28;20437;-73
2021/06/21 07:58:14;;;;;;;9.17;3.40;;;;;;;;;;5059469;28;20764;-73
2021/06/21 08:00:40;;;;;;;9.13;2.80;;;;;;;;;;5051865;28;20350;-73
2021/06/21 08:03:09;;;;;;;7.32;3.33;;;;;;;;;;5071252;28;20251;-72
2021/06/21 08:05:34;;;;;;;11.93;3.20;;;;;;;;;;5070209;28;20017;-73
2021/06/21 08:08:00;;;;;;;11.90;2.80;;;;;;;;;;5057158;28;20364;-72
2021/06/21 08:10:25;;;;;;;8.98;2.03;;;;;;;;;;5067856;28;20028;-73
2021/06/21 08:12:50;;;;;;;14.60;3.45;;;;;;;;;;5069663;28;20053;-73
2021/06/21 08:15:15;;;;;;;11.27;3.20;;;;;;;;;;5050859;28;20391;-72
2021/06/21 08:17:41;;;;;;;8.75;2.97;;;;;;;;;;5062423;28;20275;-72
2021/06/21 08:20:08;;;;;;;6.43;3.53;;;;;;;;;;5071006;28;20093;-72
2021/06/21 08:22:33;;;;;;;8.35;4.70;;;;;;;;;;5069643;28;20028;-72
2021/06/21 08:24:58;;;;;;;10.07;5.88;;;;;;;;;;5052977;28;20052;-73
2021/06/21 08:27:24;;;;;;;8.27;5.43;;;;;;;;;;5066059;28;20109;-72
2021/06/21 08:29:49;;;;;;;24.55;12.95;;;;;;;;;;5069445;28;20066;-72
2021/06/21 08:32:14;;;;;;;34.80;17.48;;;;;;;;;;5070199;28;20123;-72
2021/06/21 08:34:39;;;;;;;39.07;27.80;;;;;;;;;;5069907;28;20147;-73
2021/06/21 08:37:05;;;;;;;45.65;31.52;;;;;;;;;;5070593;28;20060;-72
2021/06/21 08:39:30;;;;;;;54.50;33.53;;;;;;;;;;5065456;28;20025;-72
2021/06/21 08:41:57;;;;;;;55.67;34.30;;;;;;;;;;5065278;28;20448;-72
2021/06/21 08:44:22;;;;;;;56.00;35.83;;;;;;;;;;5057671;28;20267;-72
2021/06/21 08:46:49;;;;;;;50.80;34.35;;;;;;;;;;5046222;28;20048;-72
2021/06/21 08:49:14;;;;;;;54.40;34.35;;;;;;;;;;5058923;28;20665;-72
2021/06/21 08:51:40;;;;;;;54.00;35.97;;;;;;;;;;5059408;28;20040;-72
2021/06/21 08:54:05;;;;;;;52.05;34.53;;;;;;;;;;5054267;28;20032;-72
2021/06/21 08:56:30;;;;;;;46.00;32.63;;;;;;;;;;5065658;28;20057;-72
2021/06/21 08:58:55;;;;;;;42.38;30.13;;;;;;;;;;5070375;28;20548;-72
2021/06/21 09:01:21;;;;;;;49.57;30.97;;;;;;;;;;5069090;28;20355;-72
2021/06/21 09:03:47;;;;;;;45.15;28.33;;;;;;;;;;5070262;28;20291;-71
2021/06/21 09:06:19;;;;;;;40.95;28.58;;;;;;;;;;5069491;28;20490;-71
2021/06/21 09:08:54;;;;;;;49.58;25.25;;;;;;;;;;5069489;28;20024;-72
2021/06/21 09:11:20;;;;;;;38.75;26.15;;;;;;;;;;5069896;28;20386;-72
2021/06/21 09:13:47;;;;;;;35.28;24.20;;;;;;;;;;5068238;28;20017;-71
2021/06/21 09:16:12;;;;;;;37.78;24.42;;;;;;;;;;5068001;28;20486;-71
2021/06/21 09:18:39;;;;;;;37.13;23.38;;;;;;;;;;5069780;28;20115;-71
2021/06/21 09:21:21;;;;;;;39.67;23.73;;;;;;;;;;5070068;28;20021;-71
2021/06/21 09:23:50;;;;;;;40.58;23.65;;;;;;;;;;5068465;28;20104;-71
2021/06/21 09:26:16;;;;;;;31.73;21.70;;;;;;;;;;5068609;28;20356;-71
2021/06/21 09:28:41;;;;;;;41.58;25.95;;;;;;;;;;5069918;28;20085;-71
2021/06/21 09:31:07;;;;;;;43.13;26.27;;;;;;;;;;5063389;28;20423;-71
2021/06/21 09:33:32;;;;;;;41.00;25.17;;;;;;;;;;5052583;28;20494;-71
2021/06/21 09:35:58;;;;;;;39.65;23.00;;;;;;;;;;5058446;28;20036;-71
2021/06/21 09:38:24;;;;;;;31.63;20.38;;;;;;;;;;5069939;28;20523;-72
2021/06/21 09:40:53;;;;;;;34.40;20.63;;;;;;;;;;5065736;28;20040;-71
2021/06/21 09:43:22;;;;;;;44.05;22.15;;;;;;;;;;5069474;28;20273;-71
2021/06/21 09:46:06;;;;;;;40.72;23.67;;;;;;;;;;5039697;28;20417;-71
2021/06/21 09:48:36;;;;;;;33.92;20.23;;;;;;;;;;5069697;28;20016;-72
2021/06/21 09:51:16;;;;;;;36.83;19.88;;;;;;;;;;5069615;28;20047;-71
2021/06/21 09:53:50;;;;;;;29.77;17.67;;;;;;;;;;5060556;28;20422;-71
2021/06/21 09:56:28;;;;;;;20.85;11.98;;;;;;;;;;5069158;28;20099;-71
2021/06/21 09:58:53;;;;;;;23.23;9.35;;;;;;;;;;5056639;28;20023;-71
2021/06/21 10:01:25;;;;;;;16.00;8.67;;;;;;;;;;5063156;28;20032;-73
2021/06/21 10:03:51;;;;;;;14.93;8.60;;;;;;;;;;5072271;28;20036;-71
2021/06/21 10:06:16;;;;;;;11.83;7.83;;;;;;;;;;5073271;28;20471;-71
2021/06/21 10:08:42;;;;;;;15.10;6.07;;;;;;;;;;5073469;28;20266;-71
2021/06/21 10:11:27;;;;;;;8.88;4.18;;;;;;;;;;5072787;28;20263;-72
2021/06/21 10:13:53;;;;;;;5.68;3.50;;;;;;;;;;5072045;28;20020;-72
2021/06/21 10:16:18;;;;;;;6.13;2.58;;;;;;;;;;5070684;28;20309;-72
2021/06/21 10:18:43;;;;;;;4.40;2.40;;;;;;;;;;5073008;28;20106;-71
2021/06/21 10:21:08;;;;;;;4.33;2.30;;;;;;;;;;5073139;28;20373;-71
2021/06/21 10:23:34;;;;;;;2.73;2.10;;;;;;;;;;5073364;28;20737;-71
2021/06/21 10:25:59;;;;;;;2.85;1.92;;;;;;;;;;5070534;28;20324;-71
2021/06/21 10:28:24;;;;;;;3.97;2.40;;;;;;;;;;5071776;28;20013;-71
2021/06/21 10:30:49;;;;;;;3.85;2.15;;;;;;;;;;5071357;28;20024;-71
2021/06/21 10:33:15;;;;;;;4.70;1.65;;;;;;;;;;5071870;28;20104;-72
2021/06/21 10:35:40;;;;;;;3.40;1.30;;;;;;;;;;5068684;28;20044;-71
2021/06/21 10:38:05;;;;;;;1.53;1.07;;;;;;;;;;5072863;28;20375;-72
2021/06/21 10:40:31;;;;;;;1.48;1.20;;;;;;;;;;5070691;28;20295;-71
2021/06/21 10:42:56;;;;;;;1.05;0.82;;;;;;;;;;5054790;28;20111;-72
2021/06/21 10:45:23;;;;;;;1.08;0.77;;;;;;;;;;5054172;28;20499;-72
2021/06/21 10:48:17;;;;;;;1.45;0.90;;;;;;;;;;5056192;28;20478;-71
2021/06/21 10:50:50;;;;;;;2.00;0.90;;;;;;;;;;5046648;28;20040;-71
2021/06/21 10:53:16;;;;;;;3.53;1.25;;;;;;;;;;5070113;28;20478;-72
2021/06/21 10:55:46;;;;;;;1.80;1.00;;;;;;;;;;5071225;28;20115;-72
2021/06/21 10:58:20;;;;;;;2.83;1.20;;;;;;;;;;5072899;28;20009;-71
2021/06/21 11:00:52;;;;;;;2.15;1.13;;;;;;;;;;5072120;28;20147;-71
2021/06/21 11:03:23;;;;;;;1.00;0.65;;;;;;;;;;5071877;28;20016;-71
2021/06/21 11:05:48;;;;;;;2.33;0.70;;;;;;;;;;5072294;28;20021;-72
2021/06/21 11:08:23;;;;;;;3.00;0.80;;;;;;;;;;5070976;28;20078;-71
2021/06/21 11:10:49;;;;;;;1.42;0.77;;;;;;;;;;5069788;28;20143;-72
2021/06/21 11:13:40;;;;;;;1.33;0.70;;;;;;;;;;5071803;28;20085;-71
2021/06/21 11:16:15;;;;;;;0.57;0.50;;;;;;;;;;5065297;28;20032;-72
2021/06/21 11:18:41;;;;;;;1.17;0.77;;;;;;;;;;5092530;23;20136;-65
2021/06/21 11:21:13;;;;;;;3.42;0.60;;;;;;;;;;5064413;28;20464;-65
2021/06/21 11:23:42;;;;;;;2.13;0.82;;;;;;;;;;5072360;28;20021;-65
2021/06/21 11:26:08;;;;;;;1.27;0.50;;;;;;;;;;5061150;28;20404;-64
2021/06/21 11:28:33;;;;;;;2.85;0.68;;;;;;;;;;5071873;28;20300;-65
2021/06/21 11:31:21;;;;;;;1.47;0.53;;;;;;;;;;5062025;28;20013;-64
2021/06/21 11:33:51;;;;;;;0.90;0.60;;;;;;;;;;5069510;28;20371;-64
2021/06/21 11:36:34;;;;;;;1.02;0.63;;;;;;;;;;5059718;28;20564;-65
2021/06/21 11:39:18;;;;;;;1.90;1.30;;;;;;;;;;5071891;28;20027;-64
2021/06/21 11:41:53;;;;;;;1.05;0.77;;;;;;;;;;5067518;28;20017;-64
2021/06/21 11:44:36;;;;;;;1.45;0.90;;;;;;;;;;5060633;28;20013;-64
2021/06/21 11:47:01;;;;;;;1.50;1.17;;;;;;;;;;5057497;28;20430;-65
2021/06/21 11:49:27;;;;;;;5.90;1.25;;;;;;;;;;5071409;28;20055;-65
2021/06/21 11:52:00;;;;;;;2.53;1.40;;;;;;;;;;5071313;28;20444;-65
2021/06/21 11:54:26;;;;;;;1.92;1.48;;;;;;;;;;5069829;28;20103;-65
2021/06/21 11:56:53;;;;;;;1.77;1.20;;;;;;;;;;5070633;28;20104;-65
2021/06/21 11:59:27;;;;;;;2.05;1.08;;;;;;;;;;5071066;28;20103;-65
2021/06/21 12:02:18;;;;;;;7.00;1.05;;;;;;;;;;5070652;28;20128;-65
2021/06/21 12:04:45;;;;;;;1.60;0.90;;;;;;;;;;5067178;28;20033;-65
2021/06/21 12:07:26;;;;;;;2.08;1.10;;;;;;;;;;5070876;28;20025;-65
2021/06/21 12:09:52;;;;;;;1.58;1.20;;;;;;;;;;5059277;28;20035;-65
2021/06/21 12:12:21;;;;;;;2.53;1.42;;;;;;;;;;5070727;28;20268;-65
2021/06/21 12:14:46;;;;;;;1.58;0.85;;;;;;;;;;5062252;28;20433;-65
2021/06/21 12:17:12;;;;;;;1.53;0.90;;;;;;;;;;5059534;28;20017;-65
2021/06/21 12:19:37;;;;;;;2.23;1.40;;;;;;;;;;5070687;28;20620;-65
2021/06/21 12:22:05;;;;;;;1.95;1.17;;;;;;;;;;5070775;28;20286;-65
2021/06/21 12:24:31;;;;;;;2.33;1.50;;;;;;;;;;5070267;28;20027;-65
2021/06/21 12:26:58;;;;;;;4.55;1.90;;;;;;;;;;5069372;28;20103;-65
2021/06/21 12:29:27;;;;;;;2.20;1.65;;;;;;;;;;5070555;28;20059;-64
2021/06/21 12:32:05;;;;;;;2.22;1.20;;;;;;;;;;5070394;28;20028;-64
2021/06/21 12:34:40;;;;;;;2.15;1.70;;;;;;;;;;5070653;28;20505;-64
2021/06/21 12:37:14;;;;;;;2.40;1.73;;;;;;;;;;5061385;28;20029;-64
2021/06/21 12:39:39;;;;;;;1.83;1.20;;;;;;;;;;5066695;28;20017;-65
2021/06/21 12:42:11;;;;;;;2.83;1.10;;;;;;;;;;5070567;28;20025;-65
2021/06/21 12:44:37;;;;;;;12.40;1.10;;;;;;;;;;5069087;28;20035;-65
2021/06/21 12:47:12;;;;;;;2.15;0.90;;;;;;;;;;5070385;28;20020;-65
2021/06/21 12:49:37;;;;;;;1.38;0.98;;;;;;;;;;5069681;28;20159;-64
2021/06/21 12:52:03;;;;;;;1.48;0.63;;;;;;;;;;5068301;28;20104;-65
2021/06/21 12:54:30;;;;;;;2.20;0.80;;;;;;;;;;5068601;28;20028;-65
2021/06/21 12:56:55;;;;;;;3.05;1.08;;;;;;;;;;5069211;28;20094;-64
2021/06/21 12:59:27;;;;;;;2.35;0.93;;;;;;;;;;5069901;28;20424;-65
2021/06/21 13:01:52;;;;;;;2.75;1.30;;;;;;;;;;5070155;28;20149;-65
2021/06/21 13:04:18;;;;;;;2.60;1.13;;;;;;;;;;5070185;28;20127;-65
2021/06/21 13:06:45;;;;;;;3.17;0.75;;;;;;;;;;5068743;28;20051;-65
2021/06/21 13:09:11;;;;;;;2.28;1.15;;;;;;;;;;5065741;28;20039;-65
2021/06/21 13:11:56;;;;;;;1.00;0.90;;;;;;;;;;5032245;28;20048;-65
2021/06/21 13:14:27;;;;;;;3.47;1.38;;;;;;;;;;5065602;28;20533;-65
2021/06/21 13:16:52;;;;;;;;;;;;;;;;;;5058579;28;20016;-66
2021/06/21 13:19:18;;;;;;;2.33;1.90;;;;;;;;;;5068756;28;19919;-64
2021/06/21 13:21:50;;;;;;;1.98;1.73;;;;;;;;;;5069587;28;20242;-65
2021/06/21 13:24:35;;;;;;;5.13;3.28;;;;;;;;;;5068551;28;20097;-65
2021/06/21 13:27:01;;;;;;;2.22;1.83;;;;;;;;;;5069568;28;20017;-65
2021/06/21 13:29:27;;;;;;;4.40;1.50;;;;;;;;;;5069508;28;20034;-65
2021/06/21 13:31:54;;;;;;;3.95;1.77;;;;;;;;;;5069436;28;20024;-66
2021/06/21 13:34:37;;;;;;;7.47;2.60;;;;;;;;;;5067301;28;20127;-65
2021/06/21 13:37:03;;;;;;;2.75;2.53;;;;;;;;;;5054399;28;20021;-66
2021/06/21 13:39:28;;;;;;;5.80;2.40;;;;;;;;;;5073657;28;20111;-66
2021/06/21 13:42:01;;;;;;;2.22;2.00;;;;;;;;;;5073561;28;20535;-64
2021/06/21 13:44:26;;;;;;;3.58;2.53;;;;;;;;;;5073492;28;20033;-65
2021/06/21 13:46:52;;;;;;;2.60;2.30;;;;;;;;;;5072690;28;20076;-65
2021/06/21 13:49:17;;;;;;;2.42;2.22;;;;;;;;;;5073091;28;20531;-65
2021/06/21 13:52:01;;;;;;;3.10;2.70;;;;;;;;;;5073301;28;20032;-65
2021/06/21 13:54:28;;;;;;;6.45;3.22;;;;;;;;;;5073235;28;20043;-66
2021/06/21 13:57:09;;;;;;;4.60;3.08;;;;;;;;;;5071988;28;20120;-65
2021/06/21 13:59:45;;;;;;;4.95;2.67;;;;;;;;;;5067570;28;20064;-65
2021/06/21 14:02:10;;;;;;;9.70;4.05;;;;;;;;;;5072860;28;20017;-65
2021/06/21 14:04:35;;;;;;;6.85;6.13;;;;;;;;;;5073149;28;20044;-65
2021/06/21 14:07:00;;;;;;;5.03;4.53;;;;;;;;;;5073599;28;20016;-64
2021/06/21 14:09:25;;;;;;;5.50;4.23;;;;;;;;;;5073160;28;20263;-64
2021/06/21 14:11:51;;;;;;;4.15;3.75;;;;;;;;;;5069342;28;20259;-65
2021/06/21 14:14:16;;;;;;;5.03;3.95;;;;;;;;;;5072803;28;20503;-66
2021/06/21 14:16:41;;;;;;;2.95;2.67;;;;;;;;;;5062761;28;20411;-64
2021/06/21 14:19:06;;;;;;;3.20;2.80;;;;;;;;;;5068571;28;20516;-65
2021/06/21 14:21:32;;;;;;;4.53;3.00;;;;;;;;;;5072781;28;20027;-65
2021/06/21 14:23:58;;;;;;;3.65;2.50;;;;;;;;;;5072888;28;20024;-66
2021/06/21 14:26:24;;;;;;;2.92;2.65;;;;;;;;;;5072275;28;20028;-65
2021/06/21 14:28:49;;;;;;;3.38;1.83;;;;;;;;;;5063045;28;20021;-66
2021/06/21 14:31:14;;;;;;;2.70;1.95;;;;;;;;;;5067247;28;20033;-66
2021/06/21 14:33:40;;;;;;;4.20;2.20;;;;;;;;;;5071263;28;20024;-66